Map

Track Data

SID SEASON NUMBER BASIN SUBBASIN NAME ISO_TIME NATURE LAT LON WMO_WIND WMO_PRES WMO_AGENCY TRACK_TYPE DIST2LAND LANDFALL IFLAG USA_AGENCY USA_ATCF_ID USA_LAT USA_LON USA_RECORD USA_STATUS USA_WIND USA_PRES USA_SSHS USA_R34_NE USA_R34_SE USA_R34_SW USA_R34_NW USA_R50_NE USA_R50_SE USA_R50_SW USA_R50_NW USA_R64_NE USA_R64_SE USA_R64_SW USA_R64_NW USA_POCI USA_ROCI USA_RMW USA_EYE TOKYO_LAT TOKYO_LON TOKYO_GRADE TOKYO_WIND TOKYO_PRES TOKYO_R50_DIR TOKYO_R50_LONG TOKYO_R50_SHORT TOKYO_R30_DIR TOKYO_R30_LONG TOKYO_R30_SHORT TOKYO_LAND CMA_LAT CMA_LON CMA_CAT CMA_WIND CMA_PRES HKO_LAT HKO_LON HKO_CAT HKO_WIND HKO_PRES NEWDELHI_LAT NEWDELHI_LON NEWDELHI_GRADE NEWDELHI_WIND NEWDELHI_PRES NEWDELHI_CI NEWDELHI_DP NEWDELHI_POCI REUNION_LAT REUNION_LON REUNION_TYPE REUNION_WIND REUNION_PRES REUNION_TNUM REUNION_CI REUNION_RMW REUNION_R34_NE REUNION_R34_SE REUNION_R34_SW REUNION_R34_NW REUNION_R50_NE REUNION_R50_SE REUNION_R50_SW REUNION_R50_NW REUNION_R64_NE REUNION_R64_SE REUNION_R64_SW REUNION_R64_NW BOM_LAT BOM_LON BOM_TYPE BOM_WIND BOM_PRES BOM_TNUM BOM_CI BOM_RMW BOM_R34_NE BOM_R34_SE BOM_R34_SW BOM_R34_NW BOM_R50_NE BOM_R50_SE BOM_R50_SW BOM_R50_NW BOM_R64_NE BOM_R64_SE BOM_R64_SW BOM_R64_NW BOM_ROCI BOM_POCI BOM_EYE BOM_POS_METHOD BOM_PRES_METHOD NADI_LAT NADI_LON NADI_CAT NADI_WIND NADI_PRES WELLINGTON_LAT WELLINGTON_LON WELLINGTON_WIND WELLINGTON_PRES DS824_LAT DS824_LON DS824_STAGE DS824_WIND DS824_PRES TD9636_LAT TD9636_LON TD9636_STAGE TD9636_WIND TD9636_PRES TD9635_LAT TD9635_LON TD9635_WIND TD9635_PRES TD9635_ROCI NEUMANN_LAT NEUMANN_LON NEUMANN_CLASS NEUMANN_WIND NEUMANN_PRES MLC_LAT MLC_LON MLC_CLASS MLC_WIND MLC_PRES USA_GUST BOM_GUST BOM_GUST_PER REUNION_GUST REUNION_GUST_PER USA_SEAHGT USA_SEARAD_NE USA_SEARAD_SE USA_SEARAD_SW USA_SEARAD_NW STORM_SPEED STORM_DIR
1991220N20160 1991 49 WP MM ELLIE 1991-08-08 00:00:00 NR 19.5000 160.100 main 2606 2606 O_____________ jtwc_wp WP111991 19.5000 160.100 15 -1 3 69
1991220N20160 1991 49 WP MM ELLIE 1991-08-08 03:00:00 NR 19.5475 160.235 main 2613 2604 P_____________ WP111991 19.5475 160.235 15 -1 3 70
1991220N20160 1991 49 WP MM ELLIE 1991-08-08 06:00:00 NR 19.6000 160.400 main 2619 2619 O_____________ jtwc_wp WP111991 19.6000 160.400 15 -1 4 71
1991220N20160 1991 49 WP MM ELLIE 1991-08-08 09:00:00 NR 19.6700 160.608 main 2625 2625 P_____________ WP111991 19.6700 160.608 17 -1 4 62
1991220N20160 1991 49 WP MM ELLIE 1991-08-08 12:00:00 NR 19.8000 160.800 main 2631 2622 O_____________ jtwc_wp WP111991 19.8000 160.800 20 -1 5 40
1991220N20160 1991 49 WP MM ELLIE 1991-08-08 15:00:00 NR 20.0275 160.930 main 2622 2605 P_____________ WP111991 20.0275 160.930 22 -1 5 21
1991220N20160 1991 49 WP MM ELLIE 1991-08-08 18:00:00 NR 20.3000 161.000 main 2605 2589 O_____________ jtwc_wp WP111991 20.3000 161.000 25 -1 5 9
1991220N20160 1991 49 WP MM ELLIE 1991-08-08 21:00:00 NR 20.5425 161.023 main 2589 2565 P_____________ WP111991 20.5425 161.023 27 -1 5 2
1991220N20160 1991 49 WP MM ELLIE 1991-08-09 00:00:00 NR 20.8000 161.000 main 2565 2542 O_____________ jtwc_wp WP111991 20.8000 161.000 30 -1 6 355
1991220N20160 1991 49 WP MM ELLIE 1991-08-09 03:00:00 NR 21.1000 160.980 main 2542 2511 P_____________ WP111991 21.1000 160.980 30 -1 6 351
1991220N20160 1991 49 WP MM ELLIE 1991-08-09 06:00:00 NR 21.4000 160.900 main 2511 2473 O_____________ jtwc_wp WP111991 21.4000 160.900 30 -1 6 337
1991220N20160 1991 49 WP MM ELLIE 1991-08-09 09:00:00 NR 21.6650 160.730 main 2473 2443 P_____________ WP111991 21.6650 160.730 30 -1 6 323
1991220N20160 1991 49 WP MM ELLIE 1991-08-09 12:00:00 NR 21.9000 160.500 main 2443 2412 O_____________ jtwc_wp WP111991 21.9000 160.500 30 -1 6 316
1991220N20160 1991 49 WP MM ELLIE 1991-08-09 15:00:00 NR 22.1075 160.265 main 2412 2375 P_____________ WP111991 22.1075 160.265 30 -1 6 311
1991220N20160 1991 49 WP MM ELLIE 1991-08-09 18:00:00 NR 22.3000 160.000 main 2375 2337 O_____________ jtwc_wp WP111991 22.3000 160.000 30 -1 6 308
1991220N20160 1991 49 WP MM ELLIE 1991-08-09 21:00:00 NR 22.4999 159.722 main 2337 2322 P_____________ WP111991 22.4999 159.722 30 -1 6 274
1991220N20160 1991 49 WP MM ELLIE 1991-08-10 00:00:00 TS 22.3429 159.343 1002 tokyo main 2322 2285 OOOO__________ jtwc_wp WP111991 22.7000 159.400 30 -1 21.7000 159.300 2 1002 0 0 0 21.7000 159.300 1 23 1002 22.2000 159.200 TD 25 1000 8 266
1991220N20160 1991 49 WP MM ELLIE 1991-08-10 03:00:00 TS 22.4537 158.910 main 2277 2240 PPPP__________ WP111991 22.9001 159.007 32 -1 21.9428 158.878 2 1002 0 0 21.9453 158.878 1 23 1002 22.5803 158.781 TD 25 1000 8 291
1991220N20160 1991 49 WP MM ELLIE 1991-08-10 06:00:00 TS 22.6385 158.508 1002 tokyo main 2240 2203 OOOO__________ jtwc_wp WP111991 23.1000 158.600 35 0 22.2000 158.500 2 1002 0 0 0 22.2000 158.500 1 23 1002 22.9000 158.400 TD 25 1000 8 300
1991220N20160 1991 49 WP MM ELLIE 1991-08-10 09:00:00 TS 22.8461 158.180 main 2203 2157 PPPP__________ WP111991 23.2998 158.250 35 0 22.4848 158.192 2 1001 0 0 22.4773 158.192 1 26 1001 23.1223 158.085 TD 25 1000 7 308
1991220N20160 1991 49 WP MM ELLIE 1991-08-10 12:00:00 TS 23.1000 157.875 1000 tokyo main 2157 2112 OOOO__________ jtwc_wp WP111991 23.5000 157.900 35 0 22.8000 157.900 2 1000 0 0 0 22.8000 157.900 1 29 1000 23.3000 157.800 TD 25 1000 8 313
1991220N20160 1991 49 WP MM ELLIE 1991-08-10 15:00:00 TS 23.3930 157.540 main 2105 2059 PPPP__________ WP111991 23.7075 157.507 37 0 23.1574 157.565 2 1000 0 0 23.2149 157.565 1 29 1000 23.4923 157.522 TD 27 1000 9 312
1991220N20160 1991 49 WP MM ELLIE 1991-08-10 18:00:00 TS 23.6750 157.175 1000 tokyo main 2059 2015 OOOO__________ jtwc_wp WP111991 23.9000 157.100 40 0 23.5000 157.200 2 1000 0 0 0 23.6000 157.200 1 29 1000 23.7000 157.200 TD 30 1000 8 306
1991220N20160 1991 49 WP MM ELLIE 1991-08-10 21:00:00 TS 23.8891 156.800 main 2015 1970 PPPP__________ WP111991 24.0573 156.707 42 0 23.7496 156.844 2 998 0 0 23.8071 156.844 1 29 1000 23.9422 156.802 TD 32 997 9 299
1991220N20160 1991 49 WP MM ELLIE 1991-08-11 00:00:00 TS 24.1000 156.350 35 996 tokyo main 1970 1903 OOOO__________ jtwc_wp WP111991 24.2000 156.300 45 0 24.0000 156.400 3 35 996 0 9 50 50 0 24.0000 156.400 1 29 1000 24.2000 156.300 TS 35 995 10 298
1991220N20160 1991 49 WP MM ELLIE 1991-08-11 03:00:00 TS 24.3787 155.790 main 1903 1845 PPPP__________ WP111991 24.3497 155.880 45 0 24.3575 155.795 3 37 994 0 9 55 55 24.3500 155.795 1 33 997 24.4575 155.687 TS 35 995 12 297
1991220N20160 1991 49 WP MM ELLIE 1991-08-11 06:00:00 TS 24.6500 155.150 40 992 tokyo main 1837 1780 OOOO__________ jtwc_wp WP111991 24.5000 155.400 45 0 24.7000 155.100 3 40 992 0 9 60 60 0 24.7000 155.100 2 38 995 24.7000 155.000 TS 35 995 13 292
1991220N20160 1991 49 WP MM ELLIE 1991-08-11 09:00:00 TS 24.8522 154.493 main 1771 1715 PPPP__________ WP111991 24.6423 154.837 45 0 24.9297 154.415 3 40 992 0 9 60 60 24.9297 154.415 2 38 995 24.9073 154.307 TS 37 992 13 287
1991220N20160 1991 49 WP MM ELLIE 1991-08-11 12:00:00 TS 25.0250 153.800 40 992 tokyo main 1715 1649 OOOO__________ jtwc_wp WP111991 24.8000 154.200 45 0 25.1000 153.700 3 40 992 0 9 60 60 0 25.1000 153.700 2 38 995 25.1000 153.600 TS 40 990 13 285
1991220N20160 1991 49 WP MM ELLIE 1991-08-11 15:00:00 TS 25.1886 153.078 main 1649 1584 PPPP__________ WP111991 24.9773 153.522 47 0 25.2423 152.949 3 42 991 0 9 60 60 25.2348 152.949 2 38 992 25.2998 152.892 TS 42 987 14 285
1991220N20160 1991 49 WP MM ELLIE 1991-08-11 18:00:00 TS 25.3750 152.350 45 990 tokyo main 1584 1520 OOOO__________ jtwc_wp WP111991 25.2000 152.800 50 0 25.4000 152.200 3 45 990 0 9 60 60 0 25.4000 152.200 2 38 990 25.5000 152.200 TS 45 985 14 288
1991220N20160 1991 49 WP MM ELLIE 1991-08-11 21:00:00 TS 25.6149 151.643 main 1513 1448 PPPP__________ WP111991 25.4923 152.050 50 0 25.6053 151.493 3 47 987 0 9 60 60 25.6698 151.478 2 38 990 25.6920 151.550 TS 45 985 14 293
1991220N20160 1991 49 WP MM ELLIE 1991-08-12 00:00:00 TS 25.9000 150.950 50 985 tokyo main 1448 1377 OOOO__________ jtwc_wp WP111991 25.8000 151.300 50 0 25.9000 150.800 4 50 985 0 9 60 60 0 26.0000 150.800 2 38 990 25.9000 150.900 TS 45 985 14 296
1991220N20160 1991 49 WP MM ELLIE 1991-08-12 03:00:00 TS 26.2215 150.277 50 985 tokyo main 1377 1313 POPP__________ WP111991 26.0569 150.599 50 0 26.3000 150.100 4 50 985 0 9 60 60 0 26.3719 150.200 2 43 987 26.1573 150.208 TS 45 985 13 298
1991220N20160 1991 49 WP MM ELLIE 1991-08-12 06:00:00 TS 26.5250 149.650 50 985 tokyo main 1313 1251 OOOO__________ jtwc_wp WP111991 26.3000 149.900 50 0 26.7000 149.600 4 50 985 0 9 60 60 0 26.7000 149.600 3 48 985 26.4000 149.500 TS 45 985 13 293
1991220N20160 1991 49 WP MM ELLIE 1991-08-12 09:00:00 TS 26.7310 148.945 50 985 tokyo main 1245 1191 POPP__________ WP111991 26.5648 149.150 50 0 26.9000 148.900 4 50 985 0 9 60 60 0 26.8946 148.930 3 48 985 26.5647 148.800 TS 47 982 13 285
1991220N20160 1991 49 WP MM ELLIE 1991-08-12 12:00:00 TS 26.8750 148.225 50 985 tokyo main 1185 1136 OOOO__________ jtwc_wp WP111991 26.8000 148.400 50 0 27.0000 148.200 4 50 985 0 9 60 60 0 27.0000 148.200 3 48 985 26.7000 148.100 STS 50 980 13 281
1991220N20160 1991 49 WP MM ELLIE 1991-08-12 15:00:00 TS 26.9987 147.465 50 985 tokyo main 1136 1088 POPP__________ WP111991 26.9719 147.700 50 0 27.1000 147.400 4 50 985 0 9 60 60 0 27.0654 147.377 3 48 985 26.8574 147.385 STS 50 980 14 279
1991220N20160 1991 49 WP MM ELLIE 1991-08-12 18:00:00 TS 27.0750 146.725 50 985 tokyo main 1083 1050 OOOO__________ jtwc_wp WP111991 27.1000 147.000 50 0 27.1000 146.600 4 50 985 0 9 60 60 0 27.1000 146.600 3 48 985 27.0000 146.700 STS 50 980 12 277
1991220N20160 1991 49 WP MM ELLIE 1991-08-12 21:00:00 TS 27.1428 146.114 50 985 tokyo main 1050 1010 POPP__________ WP111991 27.2224 146.243 52 0 27.1000 146.100 4 50 985 0 9 60 60 0 27.1416 146.027 3 48 985 27.1070 146.085 STS 52 977 11 278
1991220N20160 1991 49 WP MM ELLIE 1991-08-13 00:00:00 TS 27.2250 145.475 50 985 tokyo main 1010 971 OOOO__________ jtwc_wp WP111991 27.3000 145.500 55 0 27.2000 145.400 4 50 985 0 9 60 60 0 27.2000 145.500 3 48 985 27.2000 145.500 STS 55 975 11 277
1991220N20160 1991 49 WP MM ELLIE 1991-08-13 03:00:00 TS 27.2823 144.873 50 985 tokyo main 971 935 POPP__________ WP111991 27.3220 144.835 57 0 27.2000 144.900 4 50 985 0 9 80 80 0 27.2926 144.850 3 48 985 27.3146 144.908 STS 55 975 11 278
1991220N20160 1991 49 WP MM ELLIE 1991-08-13 06:00:00 TS 27.3750 144.250 50 985 tokyo main 935 897 OOOO__________ jtwc_wp WP111991 27.3000 144.200 60 0 27.4000 144.300 4 50 985 0 9 80 80 0 27.4000 144.200 3 48 985 27.4000 144.300 STS 55 975 11 279
1991220N20160 1991 49 WP MM ELLIE 1991-08-13 09:00:00 TS 27.4635 143.611 55 980 tokyo main 897 879 POPP__________ WP111991 27.2648 143.543 62 0 27.6000 143.600 4 55 980 9 20 20 9 80 80 0 27.5444 143.651 3 53 982 27.4449 143.650 STS 55 975 11 274
1991220N20160 1991 49 WP MM ELLIE 1991-08-13 12:00:00 TS 27.4500 143.025 55 980 tokyo main 876 872 OOOO__________ jtwc_wp WP111991 27.2000 142.900 65 1 27.6000 143.100 4 55 980 9 20 20 9 80 80 0 27.6000 143.100 3 58 980 27.4000 143.000 STS 55 975 11 262
1991220N20160 1991 49 WP MM ELLIE 1991-08-13 15:00:00 TS 27.3206 142.401 60 975 tokyo main 880 875 POPP__________ WP111991 27.1072 142.285 67 1 27.5000 142.500 4 60 975 9 30 30 9 100 100 0 27.4527 142.442 3 58 980 27.2223 142.377 STS 57 972 12 253
1991220N20160 1991 49 WP MM ELLIE 1991-08-13 18:00:00 TS 27.1000 141.750 60 975 tokyo main 884 881 OOOO__________ jtwc_wp WP111991 27.0000 141.700 70 1 27.2000 141.700 4 60 975 9 30 30 9 100 100 0 27.2000 141.800 3 58 980 27.0000 141.800 STS 60 970 11 247
1991220N20160 1991 49 WP MM ELLIE 1991-08-13 21:00:00 TS 26.8846 141.239 65 970 tokyo main 889 884 POPP__________ WP111991 26.8996 141.150 72 1 26.9000 141.200 5 65 970 9 40 40 6 130 80 0 26.9193 141.300 3 63 977 26.8194 141.308 STS 67 965 10 247
1991220N20160 1991 49 WP MM ELLIE 1991-08-14 00:00:00 TS 26.7250 140.750 65 965 tokyo main 888 858 OOOO__________ jtwc_wp WP111991 26.8000 140.600 75 1 26.7000 140.800 5 65 965 9 50 50 9 120 120 0 26.7000 140.800 4 68 975 26.7000 140.800 T 75 960 10 259
1991220N20160 1991 49 WP MM ELLIE 1991-08-14 03:00:00 TS 26.6869 140.137 70 960 tokyo main 854 827 POPP__________ WP111991 26.6998 140.008 77 1 26.7000 140.200 5 70 960 9 50 50 9 120 120 0 26.6626 140.166 4 68 972 26.6850 140.173 T 72 962 11 267
1991220N20160 1991 49 WP MM ELLIE 1991-08-14 06:00:00 TS 26.6750 139.500 70 960 tokyo main 827 808 OOOO__________ jtwc_wp WP111991 26.6000 139.400 80 1 26.7000 139.600 5 70 960 9 50 50 9 120 120 0 26.7000 139.500 4 68 970 26.7000 139.500 T 70 965 11 268
1991220N20160 1991 49 WP MM ELLIE 1991-08-14 09:00:00 TS 26.6427 138.901 70 960 tokyo main 815 795 POPP__________ WP111991 26.4997 138.808 80 1 26.7000 139.000 5 70 960 9 50 50 9 120 120 0 26.7141 138.930 4 68 970 26.6570 138.865 T 67 965 11 266
1991220N20160 1991 49 WP MM ELLIE 1991-08-14 12:00:00 TS 26.6000 138.275 70 960 tokyo main 795 780 OOOO__________ jtwc_wp WP111991 26.4000 138.200 80 1 26.7000 138.400 5 70 960 9 50 50 9 120 120 0 26.7000 138.300 4 68 970 26.6000 138.200 T 65 965 13 265
1991220N20160 1991 49 WP MM ELLIE 1991-08-14 15:00:00 TS 26.5357 137.497 70 960 tokyo main 787 751 POPP__________ WP111991 26.2921 137.572 82 1 26.7000 137.500 5 70 960 9 50 50 9 120 120 0 26.6007 137.449 4 68 970 26.5498 137.465 T 62 967 14 264
1991220N20160 1991 49 WP MM ELLIE 1991-08-14 18:00:00 TS 26.4500 136.700 70 960 tokyo main 751 721 OOOO__________ jtwc_wp WP111991 26.2000 136.900 85 2 26.6000 136.600 5 70 960 9 50 50 9 120 120 0 26.5000 136.600 4 68 970 26.5000 136.700 STS 60 970 13 264
1991220N20160 1991 49 WP MM ELLIE 1991-08-14 21:00:00 TS 26.3977 136.048 70 960 tokyo main 715 680 POPP__________ WP111991 26.1498 136.165 85 2 26.5000 136.100 5 70 960 9 50 50 9 120 120 0 26.4915 135.978 4 68 970 26.4496 135.950 STS 55 972 12 266
1991220N20160 1991 49 WP MM ELLIE 1991-08-15 00:00:00 TS 26.3750 135.350 65 965 tokyo main 674 653 OOOO__________ jtwc_wp WP111991 26.1000 135.400 85 2 26.5000 135.400 5 65 965 9 50 50 9 120 120 0 26.5000 135.400 4 68 970 26.4000 135.200 STS 50 975 13 267
1991220N20160 1991 49 WP MM ELLIE 1991-08-15 03:00:00 TS 26.3264 134.644 65 965 tokyo main 647 610 POPP__________ WP111991 25.9994 134.665 82 1 26.5000 134.700 5 65 965 9 50 50 9 120 120 0 26.4419 134.745 4 68 970 26.3644 134.465 STS 47 977 13 265
1991220N20160 1991 49 WP MM ELLIE 1991-08-15 06:00:00 TS 26.2500 133.900 65 965 tokyo main 610 584 OOOO__________ jtwc_wp WP111991 25.9000 133.900 80 1 26.4000 134.000 5 65 965 9 50 50 9 120 120 0 26.4000 134.000 4 68 970 26.3000 133.700 TS 45 980 15 266
1991220N20160 1991 49 WP MM ELLIE 1991-08-15 09:00:00 TS 26.2198 133.017 65 965 tokyo main 580 558 POPP__________ WP111991 25.8425 133.050 77 1 26.4000 133.000 5 65 965 9 50 50 9 110 110 0 26.4720 133.154 4 68 970 26.1648 132.865 TS 42 980 16 265
1991220N20160 1991 49 WP MM ELLIE 1991-08-15 12:00:00 TS 26.1250 132.150 65 970 tokyo main 566 555 OOOO__________ jtwc_wp WP111991 25.8000 132.200 75 1 26.2000 132.200 5 65 970 9 50 50 9 110 110 0 26.5000 132.200 4 68 970 26.0000 132.000 TS 40 980 16 261
1991220N20160 1991 49 WP MM ELLIE 1991-08-15 15:00:00 TS 25.9807 131.240 65 970 tokyo main 560 558 POPP__________ WP111991 25.7493 131.443 72 1 26.0000 131.300 5 65 970 9 50 50 9 110 110 0 26.3386 131.096 4 68 970 25.8350 131.120 TS 45 977 17 260
1991220N20160 1991 49 WP MM ELLIE 1991-08-15 18:00:00 TS 25.8500 130.325 60 975 tokyo main 570 581 OOOO__________ jtwc_wp WP111991 25.7000 130.700 70 1 25.9000 130.200 4 60 975 9 50 50 9 110 110 0 26.1000 130.100 4 68 970 25.7000 130.300 STS 50 975 14 260
1991220N20160 1991 49 WP MM ELLIE 1991-08-15 21:00:00 TS 25.7225 129.678 60 975 tokyo main 599 599 POPP__________ WP111991 25.6574 129.893 70 1 25.7000 129.700 4 60 975 9 50 50 9 110 110 0 25.8908 129.506 4 63 972 25.6419 129.613 STS 47 977 12 260
1991220N20160 1991 49 WP MM ELLIE 1991-08-16 00:00:00 TS 25.6500 129.025 55 980 tokyo main 614 625 OOOO__________ jtwc_wp WP111991 25.6000 129.100 70 1 25.7000 129.000 4 55 980 9 40 40 9 110 110 0 25.7000 129.000 3 58 975 25.6000 129.000 TS 45 980 12 260
1991220N20160 1991 49 WP MM ELLIE 1991-08-16 03:00:00 TS 25.5105 128.332 55 980 tokyo main 635 574 POPP__________ WP111991 25.5071 128.370 67 1 25.5000 128.300 4 55 980 9 40 40 9 110 110 0 25.5203 128.265 3 58 975 25.5147 128.393 TS 45 980 12 260
1991220N20160 1991 49 WP MM ELLIE 1991-08-16 06:00:00 TS 25.4250 127.675 55 980 tokyo main 574 514 OOOO__________ jtwc_wp WP111991 25.4000 127.700 65 1 25.5000 127.700 4 55 980 9 40 40 9 110 110 0 25.4000 127.500 3 58 975 25.4000 127.800 TS 45 980 11 261
1991220N20160 1991 49 WP MM ELLIE 1991-08-16 09:00:00 TS 25.3354 127.078 55 980 tokyo main 514 453 POPP__________ WP111991 25.2997 127.078 62 0 25.4000 127.200 4 55 980 9 40 40 9 110 110 0 25.3921 126.828 3 58 975 25.2497 127.207 TS 45 980 12 259
1991220N20160 1991 49 WP MM ELLIE 1991-08-16 12:00:00 TS 25.2000 126.425 55 980 tokyo main 443 392 OOOO__________ jtwc_wp WP111991 25.2000 126.500 60 0 25.1000 126.400 4 55 980 9 40 40 9 110 110 0 25.4000 126.200 3 58 975 25.1000 126.600 TS 45 980 11 259
1991220N20160 1991 49 WP MM ELLIE 1991-08-16 15:00:00 TS 25.1193 125.858 55 980 tokyo main 392 332 POPP__________ WP111991 25.0922 125.943 60 0 25.1000 126.000 4 55 980 9 40 40 9 110 110 0 25.3075 125.562 3 58 977 24.9777 125.927 TS 45 980 11 262
1991220N20160 1991 49 WP MM ELLIE 1991-08-16 18:00:00 TS 25.0500 125.275 50 980 tokyo main 332 281 OOOO__________ jtwc_wp WP111991 25.0000 125.400 60 0 25.1000 125.400 4 50 980 0 9 110 110 0 25.2000 125.000 3 58 980 24.9000 125.300 TS 45 980 10 264
1991220N20160 1991 49 WP MM ELLIE 1991-08-16 21:00:00 TS 25.0154 124.758 50 980 tokyo main 281 231 POPP__________ WP111991 24.9350 124.835 57 0 25.1000 124.800 4 50 980 0 9 110 110 0 25.1420 124.578 3 53 982 24.8846 124.820 TS 47 977 9 267
1991220N20160 1991 49 WP MM ELLIE 1991-08-17 00:00:00 TS 25.0000 124.275 50 980 tokyo main 231 191 OOOO__________ jtwc_wp WP111991 24.9000 124.300 55 0 25.1000 124.200 4 50 980 0 9 110 110 0 25.1000 124.200 3 48 985 24.9000 124.400 STS 50 975 8 267
1991220N20160 1991 49 WP MM ELLIE 1991-08-17 03:00:00 TS 24.9781 123.851 50 980 tokyo main 191 151 POPP__________ WP111991 24.8848 123.828 55 0 25.1000 123.900 4 50 980 0 9 110 110 0 25.0351 123.742 3 48 985 24.8925 123.935 STS 50 975 7 266
1991220N20160 1991 49 WP MM ELLIE 1991-08-17 06:00:00 TS 24.9500 123.450 50 985 tokyo main 151 110 OOOO__________ jtwc_wp WP111991 24.9000 123.400 55 0 25.0000 123.600 4 50 985 0 9 110 110 0 25.0000 123.300 3 48 985 24.9000 123.500 STS 50 975 7 270
1991220N20160 1991 49 WP MM ELLIE 1991-08-17 09:00:00 TS 24.9780 123.068 50 985 tokyo main 110 70 POPP__________ WP111991 24.9423 122.993 52 0 25.0000 123.200 4 50 985 0 9 110 110 0 25.0349 122.928 3 53 982 24.9347 123.150 STS 47 977 7 276
1991220N20160 1991 49 WP MM ELLIE 1991-08-17 12:00:00 TS 25.0250 122.700 50 985 tokyo main 70 32 OOOO__________ jtwc_wp WP111991 25.0000 122.600 50 0 25.0000 122.800 4 50 985 0 9 110 110 0 25.1000 122.600 3 58 980 25.0000 122.800 TS 45 980 7 278
1991220N20160 1991 49 WP MM ELLIE 1991-08-17 15:00:00 TS 25.0730 122.326 50 985 tokyo main 32 11 POPP__________ WP111991 25.0574 122.200 50 0 25.0000 122.400 4 50 985 0 9 110 110 0 25.1347 122.322 3 58 980 25.0998 122.380 TS 45 985 7 282
1991220N20160 1991 49 WP MM ELLIE 1991-08-17 18:00:00 TS 25.1750 121.925 50 985 tokyo main 22 0 OOOO__________ jtwc_wp WP111991 25.1000 121.800 50 0 25.2000 122.000 4 50 985 0 9 110 110 0 25.2000 122.000 3 58 980 25.2000 121.900 TS 45 990 8 284
1991220N20160 1991 49 WP MM ELLIE 1991-08-17 21:00:00 TS 25.2726 121.417 50 985 tokyo main 11 11 POPP__________ WP111991 25.1149 121.400 45 0 25.3000 121.400 4 50 985 0 9 110 110 0 25.3802 121.523 3 58 982 25.2952 121.343 TS 40 990 9 278
1991220N20160 1991 49 WP MM ELLIE 1991-08-18 00:00:00 TS 25.3000 120.950 45 990 tokyo main 30 30 OOOO__________ jtwc_wp WP111991 25.1000 121.000 40 0 25.3000 121.000 3 45 990 0 9 100 100 0 25.5000 121.000 3 58 985 25.3000 120.800 TS 35 990 8 267
1991220N20160 1991 49 WP MM ELLIE 1991-08-18 03:00:00 TS 25.2281 120.488 45 990 tokyo main 55 52 POPP__________ WP111991 25.0724 120.593 37 0 25.3000 120.500 3 45 990 0 9 100 100 0 25.4026 120.505 3 53 987 25.1373 120.355 TS 35 990 8 255
1991220N20160 1991 49 WP MM ELLIE 1991-08-18 06:00:00 TS 25.1000 120.100 40 994 tokyo main 52 39 OOOO__________ jtwc_wp WP111991 25.0000 120.200 35 0 25.3000 120.100 3 40 994 0 9 80 80 0 25.2000 120.100 3 48 990 24.9000 120.000 TS 35 990 7 248
1991220N20160 1991 49 WP MM ELLIE 1991-08-18 09:00:00 TS 24.9718 119.776 35 996 tokyo main 39 34 POPP__________ WP111991 24.8800 119.820 32 -1 25.3000 119.700 3 35 996 0 9 80 80 0 25.0148 119.863 3 43 992 24.6924 119.720 TS 30 992 6 236
1991220N20160 1991 49 WP MM ELLIE 1991-08-18 12:00:00 TS 24.7667 119.553 1000 tokyo main 52 45 OOOO__________ jtwc_wp WP111991 24.7000 119.500 30 -1 25.0000 119.500 2 1000 0 0 0 24.8000 119.700 2 38 995 24.5000 119.500 TD 25 995 6 223
1991220N20160 1991 49 WP MM ELLIE 1991-08-18 15:00:00 TS 24.5386 119.331 main 60 52 PPPP__________ WP111991 24.4574 119.270 30 -1 24.7001 119.240 2 1000 0 0 24.5575 119.500 2 33 997 24.3401 119.297 TD 25 995 6 219
1991220N20160 1991 49 WP MM ELLIE 1991-08-18 18:00:00 TS 24.2923 119.131 1000 tokyo main 52 52 OOOO__________ jtwc_wp WP111991 24.2000 119.100 30 -1 24.4000 119.000 2 1000 0 0 0 24.3000 119.300 1 29 1000 24.2000 119.100 TD 25 995 6 213
1991220N20160 1991 49 WP MM ELLIE 1991-08-18 21:00:00 TS 24.0325 118.973 main 69 63 PPP___________ WP111991 23.9850 118.935 27 -1 24.0774 118.885 2 1000 0 0 24.0350 119.100 1 26 1000 TD 6 209
1991220N20160 1991 49 WP MM ELLIE 1991-08-19 00:00:00 TS 23.8000 118.833 1000 tokyo main 80 80 OOO___________ jtwc_wp WP111991 23.8000 118.800 25 -1 23.8000 118.800 2 1000 0 0 0 23.8000 118.900 1 23 1000 5 213
1991220N20160 1991 49 WP MM ELLIE 1991-08-19 03:00:00 TS 23.6309 118.687 main 92 82 PPP___________ WP111991 23.6425 118.692 25 -1 23.6201 118.667 2 1000 0 0 23.6301 118.700 1 23 1000 4 222
1991220N20160 1991 49 WP MM ELLIE 1991-08-19 06:00:00 TS 23.5000 118.533 1000 tokyo main 82 OOO___________ jtwc_wp WP111991 23.5000 118.600 25 -1 23.5000 118.500 2 1000 0 0 0 23.5000 118.500 1 23 1000 4 228

Digital Typhoon Data and Search

About IBTrACS Database

This database is a web-friendly format of International Best Track Archive for Climate Stewardship (IBTrACS), a global best track data archive curated by NOAA dating back to 1842.

Updated: 2021-10-21